createdAt,value
2023-02-28T00:11:28.688Z,82.68
2023-02-28T00:13:55.294Z,80.98
2023-02-28T00:16:23.190Z,83.13
2023-02-28T00:18:49.940Z,81.16
2023-02-28T00:21:17.855Z,82.16
2023-02-28T00:23:44.818Z,81.81
2023-02-28T00:26:11.783Z,81.85
2023-02-28T00:28:39.185Z,81.72
2023-02-28T00:31:05.964Z,81.94
2023-02-28T00:33:32.479Z,82.78
2023-02-28T00:36:04.805Z,82.84
2023-02-28T00:38:31.554Z,82.50
2023-02-28T00:40:59.437Z,82.90
2023-02-28T00:43:25.901Z,82.12
2023-02-28T00:45:52.343Z,83.77
2023-02-28T00:48:18.805Z,81.38
2023-02-28T00:50:45.185Z,83.51
2023-02-28T00:53:11.625Z,82.29
2023-02-28T00:55:38.098Z,83.12
2023-02-28T00:58:04.560Z,82.96
2023-02-28T01:00:30.948Z,81.97
2023-02-28T01:02:57.374Z,81.79
2023-02-28T01:05:24.329Z,82.51
2023-02-28T01:07:50.798Z,82.70
2023-02-28T01:10:17.308Z,81.85
2023-02-28T01:12:43.781Z,82.79
2023-02-28T01:15:11.896Z,83.06
2023-02-28T01:17:38.385Z,82.87
2023-02-28T01:20:05.288Z,82.59
2023-02-28T01:22:31.795Z,82.98
2023-02-28T01:24:58.291Z,84.43
2023-02-28T01:27:24.634Z,84.13
2023-02-28T01:29:52.002Z,82.65
2023-02-28T01:32:18.467Z,84.43
2023-02-28T01:34:44.990Z,83.01
2023-02-28T01:37:11.382Z,83.19
2023-02-28T01:39:37.753Z,84.27
2023-02-28T01:42:04.302Z,83.13
2023-02-28T01:45:08.212Z,82.32
2023-02-28T01:47:42.449Z,84.18
2023-02-28T01:50:15.658Z,84.29
2023-02-28T01:52:43.225Z,83.75
2023-02-28T01:55:13.482Z,84.25
2023-02-28T01:57:47.296Z,83.69
2023-02-28T02:00:23.978Z,82.60
2023-02-28T02:02:54.842Z,83.65
2023-02-28T02:05:24.020Z,83.31
2023-02-28T02:07:55.053Z,84.84
2023-02-28T02:10:22.838Z,83.97
2023-02-28T02:13:12.841Z,83.77
2023-02-28T02:16:19.468Z,82.53
2023-02-28T02:18:51.904Z,84.54
2023-02-28T02:22:04.613Z,83.76
2023-02-28T02:24:40.240Z,83.62
2023-02-28T02:27:23.403Z,83.82
2023-02-28T02:30:07.848Z,82.77
2023-02-28T02:33:19.522Z,84.36
2023-02-28T02:35:57.625Z,83.98
2023-02-28T02:38:29.917Z,82.69
2023-02-28T02:41:17.936Z,82.76
2023-02-28T02:44:04.409Z,84.54
2023-02-28T02:46:35.786Z,83.29
2023-02-28T02:49:06.212Z,83.40
2023-02-28T02:51:34.861Z,83.45
2023-02-28T02:54:09.080Z,84.06
2023-02-28T02:56:38.322Z,83.10
2023-02-28T02:59:10.286Z,83.78
2023-02-28T03:01:38.858Z,83.76
2023-02-28T03:04:09.129Z,83.27
2023-02-28T03:06:36.333Z,83.47
2023-02-28T03:09:02.890Z,83.66
2023-02-28T03:11:30.757Z,83.81
2023-02-28T03:14:25.740Z,84.56
2023-02-28T03:17:14.118Z,82.99
2023-02-28T03:20:03.612Z,83.71
2023-02-28T03:22:50.377Z,82.79
2023-02-28T03:25:30.438Z,82.79
2023-02-28T03:28:23.011Z,83.01
2023-02-28T03:30:54.724Z,83.62
2023-02-28T03:33:26.451Z,83.33
2023-02-28T03:36:00.166Z,84.21
2023-02-28T03:38:35.268Z,82.67
2023-02-28T03:41:16.821Z,84.58
2023-02-28T03:43:50.186Z,84.54
2023-02-28T03:46:22.097Z,82.76
2023-02-28T03:48:56.217Z,84.36
2023-02-28T03:51:25.217Z,83.54
2023-02-28T03:53:55.315Z,83.68
2023-02-28T03:56:27.237Z,83.92
2023-02-28T03:58:59.653Z,82.89
2023-02-28T04:01:29.412Z,85.00
2023-02-28T04:03:56.041Z,83.69
2023-02-28T04:06:24.249Z,84.96
2023-02-28T04:08:51.393Z,83.87
2023-02-28T04:11:28.892Z,83.74
2023-02-28T04:13:55.433Z,84.98
2023-02-28T04:16:34.528Z,82.83
2023-02-28T04:19:05.771Z,84.71
2023-02-28T04:21:35.079Z,83.68
2023-02-28T04:24:01.847Z,83.20
2023-02-28T04:26:37.025Z,83.71
2023-02-28T04:29:05.884Z,84.21
2023-02-28T04:31:33.014Z,83.68
2023-02-28T04:33:59.710Z,82.89
2023-02-28T04:36:26.490Z,83.63
2023-02-28T04:38:53.155Z,83.31
2023-02-28T04:41:20.217Z,84.04
2023-02-28T04:43:46.566Z,84.21
2023-02-28T04:46:13.057Z,83.16
2023-02-28T04:48:41.673Z,83.14
2023-02-28T04:51:13.288Z,84.49
2023-02-28T04:53:41.157Z,84.56
2023-02-28T04:56:09.302Z,84.29
2023-02-28T04:58:35.815Z,83.44
2023-02-28T05:01:05.597Z,83.24
2023-02-28T05:03:32.005Z,84.59
2023-02-28T05:05:58.400Z,82.97
2023-02-28T05:08:24.809Z,83.34
2023-02-28T05:10:51.212Z,84.66
2023-02-28T05:13:17.547Z,83.41
2023-02-28T05:15:43.991Z,83.58
2023-02-28T05:18:10.672Z,82.36
2023-02-28T05:20:37.074Z,83.52
2023-02-28T05:23:04.333Z,84.12
2023-02-28T05:25:30.665Z,82.60
2023-02-28T05:27:57.006Z,82.76
2023-02-28T05:30:23.342Z,84.05
2023-02-28T05:32:52.356Z,83.00
2023-02-28T05:35:19.243Z,82.71
2023-02-28T05:37:45.730Z,82.48
2023-02-28T05:40:12.508Z,81.89
2023-02-28T05:42:39.088Z,82.13
2023-02-28T05:45:07.834Z,80.44
2023-02-28T05:47:34.444Z,81.75
2023-02-28T05:50:01.360Z,81.29
2023-02-28T05:52:28.642Z,82.07
2023-02-28T05:54:55.168Z,80.47
2023-02-28T05:57:24.616Z,80.55
2023-02-28T05:59:51.693Z,81.47
2023-02-28T06:02:18.902Z,79.94
2023-02-28T06:04:46.056Z,79.00
2023-02-28T06:07:13.068Z,79.22
2023-02-28T06:09:39.861Z,78.14
2023-02-28T06:12:08.048Z,79.72
2023-02-28T06:14:34.995Z,79.93
2023-02-28T06:17:02.150Z,77.92
2023-02-28T06:19:29.568Z,79.16
2023-02-28T06:21:57.722Z,79.75
2023-02-28T06:24:26.035Z,77.15
2023-02-28T06:26:52.414Z,77.13
2023-02-28T06:29:19.329Z,77.08
2023-02-28T06:31:47.137Z,76.76
2023-02-28T06:34:14.355Z,77.92
2023-02-28T06:36:42.380Z,76.74
2023-02-28T06:39:10.227Z,75.65
2023-02-28T06:41:53.561Z,76.04
2023-02-28T06:44:22.316Z,74.98
2023-02-28T06:46:48.685Z,76.23
2023-02-28T06:49:16.263Z,74.70
2023-02-28T06:51:47.821Z,73.61
2023-02-28T06:54:14.587Z,73.36
2023-02-28T06:56:41.074Z,75.86
2023-02-28T06:59:07.597Z,74.38
2023-02-28T07:01:34.070Z,74.81
2023-02-28T07:04:01.748Z,73.73
2023-02-28T07:06:28.838Z,73.69
2023-02-28T07:08:55.987Z,72.93
2023-02-28T07:11:26.363Z,72.77
2023-02-28T07:13:53.950Z,73.66
2023-02-28T07:16:20.612Z,73.24
2023-02-28T07:18:47.328Z,73.28
2023-02-28T07:21:14.593Z,72.65
2023-02-28T07:23:42.435Z,74.23
2023-02-28T07:26:15.531Z,72.75
2023-02-28T07:28:46.011Z,72.96
2023-02-28T07:31:14.940Z,72.29
2023-02-28T07:33:41.967Z,72.47
2023-02-28T07:36:16.172Z,72.73
2023-02-28T07:38:48.951Z,71.60
2023-02-28T07:41:19.387Z,72.67
2023-02-28T07:43:46.260Z,71.50
2023-02-28T07:46:18.407Z,70.59
2023-02-28T07:48:45.850Z,71.14
2023-02-28T07:51:12.494Z,71.37
2023-02-28T07:53:39.015Z,69.78
2023-02-28T07:56:06.010Z,71.11
2023-02-28T07:58:32.487Z,70.69
2023-02-28T08:01:06.764Z,68.39
2023-02-28T08:03:33.183Z,69.76
2023-02-28T08:05:59.521Z,69.43
2023-02-28T08:08:30.123Z,70.98
2023-02-28T08:10:57.437Z,69.55
2023-02-28T08:13:23.898Z,69.43
2023-02-28T08:15:50.317Z,69.07
2023-02-28T08:18:16.846Z,67.82
2023-02-28T08:20:43.318Z,67.52
2023-02-28T08:23:09.833Z,66.11
2023-02-28T08:25:36.274Z,66.90
2023-02-28T08:28:02.804Z,66.01
2023-02-28T08:30:29.231Z,65.87
2023-02-28T08:32:56.261Z,65.25
2023-02-28T08:35:23.394Z,65.30
2023-02-28T08:37:50.403Z,63.84
2023-02-28T08:40:19.605Z,63.80
2023-02-28T08:42:46.663Z,62.68
2023-02-28T08:45:14.394Z,63.37
2023-02-28T08:47:41.922Z,62.62
2023-02-28T08:50:09.149Z,62.26
2023-02-28T08:52:35.661Z,61.48
2023-02-28T08:55:02.101Z,61.12
2023-02-28T08:57:28.592Z,60.07
2023-02-28T08:59:54.968Z,60.73
2023-02-28T09:02:21.400Z,60.57
2023-02-28T09:04:47.886Z,60.51
2023-02-28T09:07:14.822Z,60.21
2023-02-28T09:09:54.419Z,59.06
2023-02-28T09:12:25.593Z,59.40
2023-02-28T09:14:53.215Z,58.74
2023-02-28T09:17:20.373Z,59.40
2023-02-28T09:19:49.075Z,58.48
2023-02-28T09:22:15.601Z,58.33
2023-02-28T09:24:42.234Z,59.14
2023-02-28T09:27:08.838Z,57.82
2023-02-28T09:29:35.869Z,58.04
2023-02-28T09:32:02.873Z,57.82
2023-02-28T09:34:31.711Z,58.66
2023-02-28T09:36:58.313Z,56.16
2023-02-28T09:39:25.089Z,56.51
2023-02-28T09:41:53.293Z,56.32
2023-02-28T09:44:34.889Z,56.27
2023-02-28T09:47:35.891Z,55.08
2023-02-28T09:50:27.515Z,56.45
2023-02-28T09:52:56.146Z,56.30
2023-02-28T09:55:47.043Z,55.51
2023-02-28T09:58:23.473Z,54.58
2023-02-28T10:01:01.139Z,56.06
2023-02-28T10:03:44.065Z,54.69
2023-02-28T10:06:22.728Z,54.16
2023-02-28T10:09:30.875Z,53.66
2023-02-28T10:12:04.151Z,53.60
2023-02-28T10:14:34.545Z,54.96
2023-02-28T10:17:14.756Z,54.67
2023-02-28T10:20:00.416Z,55.79
2023-02-28T10:22:29.768Z,56.54
2023-02-28T10:25:02.094Z,54.41
2023-02-28T10:27:33.457Z,53.65
2023-02-28T10:30:01.885Z,54.77
2023-02-28T10:32:36.282Z,55.05
2023-02-28T10:35:21.612Z,52.38
2023-02-28T10:37:51.668Z,50.50
2023-02-28T10:40:18.038Z,49.84
2023-02-28T10:42:59.004Z,53.48
2023-02-28T10:45:27.788Z,51.40
2023-02-28T10:47:59.014Z,52.96
2023-02-28T10:50:34.495Z,53.41
2023-02-28T10:53:57.659Z,53.42
2023-02-28T10:56:28.892Z,53.96
2023-02-28T10:58:55.374Z,53.96
2023-02-28T11:01:31.369Z,54.69
2023-02-28T11:03:58.352Z,53.94
2023-02-28T11:06:34.756Z,53.95
2023-02-28T11:09:06.844Z,54.43
2023-02-28T11:11:44.525Z,54.48
2023-02-28T11:14:28.542Z,55.22
2023-02-28T11:16:58.352Z,52.05
2023-02-28T11:19:29.520Z,49.54
2023-02-28T11:22:02.561Z,49.34
2023-02-28T11:24:33.119Z,49.88
2023-02-28T11:26:59.720Z,48.74
2023-02-28T11:29:32.443Z,48.15
2023-02-28T11:32:20.028Z,50.29
2023-02-28T11:34:48.355Z,51.63
2023-02-28T11:37:18.883Z,51.22
2023-02-28T11:39:46.762Z,52.05
2023-02-28T11:42:33.282Z,51.67
2023-02-28T11:45:43.709Z,52.42
2023-02-28T11:48:33.968Z,51.30
2023-02-28T11:51:14.437Z,51.13
2023-02-28T11:54:17.812Z,51.96
2023-02-28T11:57:04.082Z,50.73
2023-02-28T11:59:39.424Z,50.61
2023-02-28T12:02:30.919Z,51.93
2023-02-28T12:05:28.359Z,48.52
2023-02-28T12:07:57.900Z,47.24
2023-02-28T12:10:30.827Z,48.23
2023-02-28T12:13:13.755Z,48.51
2023-02-28T12:15:49.336Z,50.38
2023-02-28T12:18:54.306Z,50.58
2023-02-28T12:21:49.386Z,50.09
2023-02-28T12:24:43.854Z,49.57
2023-02-28T12:27:17.769Z,48.74
2023-02-28T12:29:55.697Z,49.86
2023-02-28T12:32:45.832Z,50.06
2023-02-28T12:35:35.675Z,50.20
2023-02-28T12:38:13.998Z,49.20
2023-02-28T12:40:54.914Z,50.55
2023-02-28T12:43:26.356Z,51.31
2023-02-28T12:46:07.758Z,50.99
2023-02-28T12:48:43.398Z,50.67
2023-02-28T12:51:11.094Z,49.14
2023-02-28T12:54:21.801Z,50.98
2023-02-28T12:56:55.998Z,49.83
2023-02-28T12:59:28.477Z,47.81
2023-02-28T13:02:31.723Z,46.39
2023-02-28T13:05:07.022Z,47.84
2023-02-28T13:07:52.264Z,48.92
2023-02-28T13:10:19.737Z,49.44
2023-02-28T13:12:51.723Z,49.58
2023-02-28T13:15:25.034Z,50.03
2023-02-28T13:17:54.252Z,49.72
2023-02-28T13:20:24.547Z,50.36
2023-02-28T13:22:53.692Z,50.08
2023-02-28T13:25:22.850Z,49.43
2023-02-28T13:27:57.227Z,50.08
2023-02-28T13:30:52.011Z,51.23
2023-02-28T13:33:33.646Z,50.08
2023-02-28T13:36:15.341Z,48.20
2023-02-28T13:38:47.220Z,49.00
2023-02-28T13:41:31.757Z,49.43
2023-02-28T13:44:03.096Z,48.26
2023-02-28T13:46:30.760Z,47.65
2023-02-28T13:48:57.555Z,48.16
2023-02-28T13:51:44.078Z,47.67
2023-02-28T13:54:19.337Z,48.86
2023-02-28T13:57:10.022Z,48.79
2023-02-28T13:59:45.252Z,49.53
2023-02-28T14:02:33.722Z,49.01
2023-02-28T14:07:50.145Z,48.03
2023-02-28T14:10:46.218Z,48.89
2023-02-28T14:13:34.316Z,49.23
2023-02-28T14:16:03.170Z,49.58
2023-02-28T14:18:31.750Z,50.27
2023-02-28T14:21:08.832Z,49.96
2023-02-28T14:23:47.711Z,50.30
2023-02-28T14:26:38.801Z,49.70
2023-02-28T14:29:38.110Z,50.68
2023-02-28T14:32:19.922Z,51.53
2023-02-28T14:37:32.122Z,51.08
2023-02-28T14:40:01.407Z,51.04
2023-02-28T14:42:44.795Z,51.23
2023-02-28T14:45:22.124Z,52.00
2023-02-28T14:47:50.957Z,51.45
2023-02-28T14:50:35.744Z,50.66
2023-02-28T14:53:04.042Z,51.34
2023-02-28T14:55:34.647Z,52.86
2023-02-28T14:58:05.177Z,52.44
2023-02-28T15:00:47.714Z,53.15
2023-02-28T15:03:36.966Z,52.97
2023-02-28T15:06:14.729Z,52.60
2023-02-28T15:08:41.499Z,52.71
2023-02-28T15:11:23.361Z,52.60
2023-02-28T15:13:52.114Z,53.44
2023-02-28T15:16:22.795Z,54.12
2023-02-28T15:18:55.165Z,54.42
2023-02-28T15:21:28.473Z,54.77
2023-02-28T15:24:12.063Z,54.69
2023-02-28T15:26:46.943Z,55.53
2023-02-28T15:29:17.910Z,55.16
2023-02-28T15:31:56.840Z,56.08
2023-02-28T15:34:45.007Z,55.63
2023-02-28T15:37:39.963Z,56.22
2023-02-28T15:40:30.640Z,57.01
2023-02-28T15:43:17.630Z,56.78
2023-02-28T16:01:24.842Z,59.70
2023-02-28T16:03:54.526Z,59.25
2023-02-28T16:06:38.913Z,59.92
2023-02-28T16:09:08.848Z,60.24
2023-02-28T16:11:40.067Z,59.83
2023-02-28T16:14:06.499Z,60.39
2023-02-28T16:16:34.139Z,61.45
2023-02-28T16:19:00.702Z,61.85
2023-02-28T16:21:28.031Z,61.93
2023-02-28T16:23:55.026Z,61.80
2023-02-28T16:26:25.908Z,62.39
2023-02-28T16:28:52.668Z,62.10
2023-02-28T16:31:19.344Z,62.57
2023-02-28T16:33:47.235Z,61.98
2023-02-28T16:36:18.918Z,62.39
2023-02-28T16:38:45.920Z,62.70
2023-02-28T16:41:24.845Z,63.82
2023-02-28T16:43:54.638Z,64.42
2023-02-28T16:46:21.807Z,64.42
2023-02-28T16:48:52.343Z,64.02
2023-02-28T16:51:19.274Z,64.87
2023-02-28T16:53:46.163Z,63.80
2023-02-28T16:56:19.604Z,64.91
2023-02-28T16:58:47.530Z,64.44
2023-02-28T17:01:14.707Z,64.34
2023-02-28T17:03:41.354Z,64.72
2023-02-28T17:06:40.841Z,65.30
2023-02-28T17:09:16.323Z,64.90
2023-02-28T17:11:42.804Z,65.51
2023-02-28T17:14:09.254Z,65.67
2023-02-28T17:16:37.446Z,66.13
2023-02-28T17:19:06.272Z,65.13
2023-02-28T17:21:33.996Z,65.70
2023-02-28T17:24:01.116Z,65.47
2023-02-28T17:26:28.914Z,66.62
2023-02-28T17:28:57.168Z,65.69
2023-02-28T17:31:25.194Z,66.51
2023-02-28T17:33:52.020Z,66.21
2023-02-28T17:36:27.718Z,66.22
2023-02-28T17:38:56.191Z,66.25
2023-02-28T17:41:23.350Z,65.87
2023-02-28T17:43:51.252Z,66.44
2023-02-28T17:46:21.562Z,66.86
2023-02-28T17:48:49.320Z,65.85
2023-02-28T17:51:16.823Z,66.50
2023-02-28T17:53:43.456Z,67.42
2023-02-28T17:56:15.299Z,67.11
2023-02-28T17:58:42.165Z,67.27
2023-02-28T18:01:09.062Z,67.04
2023-02-28T18:03:35.481Z,68.64
2023-02-28T18:06:03.587Z,68.73
2023-02-28T18:08:30.220Z,68.68
2023-02-28T18:10:56.589Z,67.55
2023-02-28T18:13:23.022Z,68.72
2023-02-28T18:15:49.513Z,68.67
2023-02-28T18:18:16.641Z,68.70
2023-02-28T18:20:43.009Z,69.34
2023-02-28T18:23:09.342Z,68.50
2023-02-28T18:25:35.715Z,69.16
2023-02-28T18:28:02.131Z,69.11
2023-02-28T18:30:31.370Z,69.77
2023-02-28T18:32:59.280Z,70.04
2023-02-28T18:35:35.166Z,70.71
2023-02-28T18:38:12.984Z,70.36
2023-02-28T18:40:39.528Z,70.59
2023-02-28T18:43:06.224Z,70.15
2023-02-28T18:45:36.024Z,69.81
2023-02-28T18:48:02.428Z,70.53
2023-02-28T18:50:29.617Z,71.09
2023-02-28T18:52:57.792Z,71.66
2023-02-28T18:55:24.608Z,70.94
2023-02-28T18:57:50.980Z,71.63
2023-02-28T19:00:22.804Z,70.62
2023-02-28T19:02:50.487Z,71.38
2023-02-28T19:05:18.473Z,72.17
2023-02-28T19:07:45.503Z,71.67
2023-02-28T19:10:13.318Z,71.26
2023-02-28T19:12:42.754Z,71.96
2023-02-28T19:15:10.472Z,71.91
2023-02-28T19:17:37.187Z,72.06
2023-02-28T19:20:05.169Z,72.05
2023-02-28T19:22:31.953Z,71.74
2023-02-28T19:24:58.406Z,72.13
2023-02-28T19:27:25.068Z,72.14
2023-02-28T19:29:52.899Z,72.16
2023-02-28T19:32:20.853Z,73.23
2023-02-28T19:34:47.735Z,71.74
2023-02-28T19:37:14.282Z,73.25
2023-02-28T19:39:43.891Z,73.04
2023-02-28T19:42:13.143Z,74.34
2023-02-28T19:44:40.841Z,73.62
2023-02-28T19:47:07.440Z,73.54
2023-02-28T19:49:34.311Z,73.36
2023-02-28T19:52:01.203Z,73.27
2023-02-28T19:54:28.195Z,73.40
2023-02-28T19:56:57.413Z,73.93
2023-02-28T19:59:35.842Z,73.92
2023-02-28T20:02:05.272Z,73.73
2023-02-28T20:04:34.272Z,74.91
2023-02-28T20:07:00.695Z,75.17
2023-02-28T20:09:30.993Z,73.79
2023-02-28T20:11:59.362Z,74.36
2023-02-28T20:14:26.407Z,75.21
2023-02-28T20:16:52.844Z,74.64
2023-02-28T20:19:20.477Z,74.47
2023-02-28T20:21:47.220Z,75.30
2023-02-28T20:24:13.732Z,74.55
2023-02-28T20:26:40.209Z,74.49
2023-02-28T20:29:08.978Z,74.73
2023-02-28T20:31:37.955Z,75.48
2023-02-28T20:34:07.746Z,75.64
2023-02-28T20:36:34.179Z,75.70
2023-02-28T20:39:00.676Z,74.72
2023-02-28T20:41:28.340Z,74.61
2023-02-28T20:43:57.969Z,74.42
2023-02-28T20:46:26.205Z,74.97
2023-02-28T20:48:53.074Z,75.59
2023-02-28T20:51:20.042Z,74.53
2023-02-28T20:53:46.706Z,74.98
2023-02-28T20:56:16.179Z,75.23
2023-02-28T20:58:45.302Z,75.67
2023-02-28T21:01:17.871Z,75.82
2023-02-28T21:03:52.148Z,76.76
2023-02-28T21:06:20.778Z,75.04
2023-02-28T21:08:48.721Z,76.08
2023-02-28T21:11:20.725Z,75.54
2023-02-28T21:13:47.739Z,75.42
2023-02-28T21:16:17.247Z,76.60
2023-02-28T21:18:43.934Z,75.99
2023-02-28T21:21:14.196Z,76.58
2023-02-28T21:23:41.300Z,77.05
2023-02-28T21:26:11.257Z,76.14
2023-02-28T21:28:38.694Z,76.39
2023-02-28T21:31:07.634Z,76.56
2023-02-28T21:33:37.189Z,77.49
2023-02-28T21:36:09.090Z,77.51
2023-02-28T21:38:37.021Z,76.85
2023-02-28T21:41:08.683Z,77.40
2023-02-28T21:43:35.492Z,76.65
2023-02-28T21:46:03.861Z,76.49
2023-02-28T21:48:31.263Z,76.95
2023-02-28T21:51:01.318Z,77.48
2023-02-28T21:53:31.425Z,77.30
2023-02-28T21:56:12.798Z,77.59
2023-02-28T21:58:39.306Z,77.23
2023-02-28T22:01:14.726Z,77.71
2023-02-28T22:03:41.849Z,78.26
2023-02-28T22:06:17.385Z,77.41
2023-02-28T22:08:46.813Z,78.29
2023-02-28T22:11:14.891Z,78.16
2023-02-28T22:13:41.823Z,78.77
2023-02-28T22:16:16.740Z,78.66
2023-02-28T22:18:43.787Z,78.82
2023-02-28T22:21:12.266Z,79.54
2023-02-28T22:23:40.286Z,79.07
2023-02-28T22:26:09.489Z,79.60
2023-02-28T22:28:36.335Z,79.59
2023-02-28T22:31:39.000Z,79.39
2023-02-28T22:34:08.676Z,79.28
2023-02-28T22:36:35.690Z,78.91
2023-02-28T22:39:04.048Z,79.56
2023-02-28T22:41:30.619Z,79.23
2023-02-28T22:43:59.185Z,79.00
2023-02-28T22:46:29.914Z,79.68
2023-02-28T22:48:58.773Z,78.86
2023-02-28T22:51:26.494Z,78.97
2023-02-28T22:53:54.714Z,78.94
2023-02-28T22:56:24.168Z,79.07
2023-02-28T22:58:52.695Z,79.04
2023-02-28T23:01:21.886Z,78.83
2023-02-28T23:03:48.924Z,78.08
2023-02-28T23:06:25.517Z,78.90
2023-02-28T23:08:55.324Z,78.04
2023-02-28T23:11:30.556Z,78.91
2023-02-28T23:14:00.428Z,78.98
2023-02-28T23:16:41.183Z,78.78
2023-02-28T23:19:14.334Z,78.91
2023-02-28T23:21:41.413Z,77.95
2023-02-28T23:24:12.705Z,78.10
2023-02-28T23:26:41.725Z,78.58
2023-02-28T23:29:08.813Z,79.01
2023-02-28T23:31:37.297Z,79.29
2023-02-28T23:34:03.856Z,78.44
2023-02-28T23:36:30.704Z,78.56
2023-02-28T23:38:57.660Z,79.05
2023-02-28T23:41:24.710Z,79.08
2023-02-28T23:43:52.496Z,79.38
2023-02-28T23:46:20.135Z,79.29
2023-02-28T23:48:46.532Z,79.52
2023-02-28T23:51:18.394Z,79.98
2023-02-28T23:53:47.081Z,79.59
2023-02-28T23:56:15.734Z,79.50
2023-02-28T23:58:44.116Z,79.29
